Ainsworth, NE

8:11 AM CDT on August 23, 2017 (GMT -0500)
Ainsworth Municipal

Weather History for KANW - March, 2013

Change the Weather History Date:

Thursday, March 7, 2013

  Actual Average Record
Temperature  
Mean Temperature 40 °F -  
Max Temperature 55 °F 37 °F 76 °F (2016)
Min Temperature 25 °F 18 °F 1 °F (2008)
Degree Days  
Heating Degree Days 25    
Moisture  
Dew Point 24 °F    
Average Humidity 61    
Maximum Humidity 84    
Minimum Humidity 29    
Precipitation  
Precipitation 0.00 in - - ()
Sea Level Pressure  
Sea Level Pressure 29.98 in    
Wind  
Wind Speed 14 mph (South)    
Max Wind Speed 23 mph    
Max Gust Speed 28 mph    
Visibility 10 miles    
Events      
Averages and records for this station are not official NWS values.
T = Trace of Precipitation, MM = Missing Value Source: NWS Daily Summary

Daily Weather History Graph

Daily Weather History Graph

Search for Another Location

Airport or City:

Trip Planner

Search our weather history database for the weather conditions in past years. The results will help you decide how hot, cold, wet, or windy it might be!

Date:

Astronomy

Mar. 07, 2013 Rise Set
Actual Time 7:05 AM CST 6:37 PM CST
Civil Twilight 6:37 AM CST 7:05 PM CST
Nautical Twilight 6:04 AM CST 7:38 PM CST
Astronomical Twilight 5:31 AM CST 8:10 PM CST
Moon 4:10 AM CST (3/7) 2:22 PM CST (3/7)
Length of Visible Light 12h 28m
Length of Day
11h 32m
Waning Crescent, 20% of the Moon is Illuminated
Mar 7
Waning Crescent
Mar 11
New
Mar 19
First Quarter
Mar 27
Full
Apr 2
Last Quarter

Hourly Weather History & Observations

Time (CST) Temp. Windchill Dew Point Humidity Pressure Visibility Wind Dir Wind Speed Gust Speed Precip Events Conditions
12:15 AM 29.8 °F 19.3 °F 20.3 °F 68% 29.99 in 10.0 mi SSE 13.8 mph - N/A   Clear
12:35 AM 29.7 °F 18.6 °F 20.7 °F 69% 29.98 in 10.0 mi SSE 15.0 mph - N/A   Clear
12:55 AM 29.3 °F 19.1 °F 20.8 °F 71% 29.98 in 10.0 mi SSE 12.7 mph - N/A   Clear
1:15 AM 29.3 °F 18.6 °F 21.0 °F 71% 29.98 in 10.0 mi SSE 13.8 mph - N/A   Clear
1:35 AM 29.8 °F 18.9 °F 21.2 °F 70% 29.97 in 10.0 mi SSE 15.0 mph - N/A   Clear
1:55 AM 29.7 °F 19.1 °F 21.2 °F 71% 29.99 in 10.0 mi SSE 13.8 mph - N/A   Clear
2:15 AM 29.3 °F 18.6 °F 21.2 °F 72% 29.98 in 10.0 mi SSE 13.8 mph - N/A   Clear
2:35 AM 28.9 °F 18.6 °F 21.6 °F 74% 29.97 in 10.0 mi SSE 12.7 mph - N/A   Clear
2:55 AM 28.2 °F 18.9 °F 21.2 °F 75% 29.97 in 10.0 mi SSE 10.4 mph - N/A   Clear
3:15 AM 28.0 °F 18.1 °F 21.6 °F 77% 29.97 in 10.0 mi SSE 11.5 mph - N/A   Clear
3:35 AM 27.5 °F 16.8 °F 21.6 °F 78% 29.96 in 10.0 mi SSE 12.7 mph - N/A   Clear
3:55 AM 27.5 °F 15.9 °F 21.6 °F 78% 29.95 in 10.0 mi SSE 15.0 mph - N/A   Clear
4:15 AM 27.1 °F 15.9 °F 21.2 °F 78% 29.95 in 10.0 mi SSE 13.8 mph - N/A   Clear
4:35 AM 26.8 °F 14.9 °F 21.4 °F 80% 29.95 in 10.0 mi SSE 15.0 mph 20.7 mph N/A   Clear
4:55 AM 26.6 °F 15.2 °F 21.2 °F 80% 29.96 in 10.0 mi SSE 13.8 mph - N/A   Clear
5:15 AM 26.2 °F 15.2 °F 21.4 °F 82% 29.96 in 10.0 mi SSE 12.7 mph - N/A   Clear
5:35 AM 26.1 °F 14.0 °F 21.4 °F 82% 29.96 in 10.0 mi SSE 15.0 mph - N/A   Clear
5:55 AM 26.1 °F 13.6 °F 21.2 °F 82% 29.94 in 10.0 mi SSE 16.1 mph - N/A   Clear
6:15 AM 25.7 °F 14.0 °F 21.6 °F 84% 29.95 in 10.0 mi SSE 13.8 mph 19.6 mph N/A   Clear
6:35 AM 25.9 °F 13.3 °F 21.7 °F 84% 29.95 in 10.0 mi SSE 16.1 mph 20.7 mph N/A   Clear
6:55 AM 26.1 °F 13.6 °F 21.6 °F 83% 29.95 in 10.0 mi SSE 16.1 mph - N/A   Clear
7:15 AM 25.7 °F 13.5 °F 21.2 °F 83% 29.95 in 10.0 mi South 15.0 mph - N/A   Clear
7:35 AM 26.2 °F 13.4 °F 21.7 °F 83% 29.96 in 10.0 mi South 17.3 mph - N/A   Clear
7:55 AM 26.6 °F 13.8 °F 21.9 °F 82% 29.96 in 10.0 mi South 17.3 mph - N/A   Clear
8:15 AM 27.5 °F 14.6 °F 22.3 °F 81% 29.97 in 10.0 mi South 18.4 mph 24.2 mph N/A   Clear
8:35 AM 28.9 °F 15.8 °F 22.6 °F 77% 29.96 in 10.0 mi South 20.7 mph 25.3 mph N/A   Clear
8:55 AM 29.8 °F 16.3 °F 22.6 °F 75% 29.96 in 10.0 mi South 23.0 mph 27.6 mph N/A   Clear
9:15 AM 31.8 °F 20.2 °F 23.2 °F 70% 29.97 in 10.0 mi South 18.4 mph 24.2 mph N/A   Clear
9:35 AM 33.3 °F 21.5 °F 23.2 °F 67% 29.97 in 10.0 mi South 20.7 mph 25.3 mph N/A   Clear
9:55 AM 34.9 °F 23.9 °F 23.4 °F 63% 29.97 in 10.0 mi SSW 19.6 mph - N/A   Clear
10:15 AM 35.8 °F 25.1 °F 23.5 °F 61% 29.97 in 10.0 mi SSW 19.6 mph 24.2 mph N/A   Clear
10:35 AM 36.5 °F 26.7 °F 23.7 °F 60% 29.96 in 10.0 mi South 17.3 mph - N/A   Clear
10:55 AM 38.5 °F 29.6 °F 24.3 °F 57% 29.96 in 10.0 mi South 16.1 mph - N/A   Clear
11:15 AM 39.7 °F 31.2 °F 24.1 °F 54% 29.97 in 10.0 mi South 16.1 mph - N/A   Clear
11:35 AM 41.7 °F 33.7 °F 24.3 °F 50% 29.97 in 10.0 mi South 16.1 mph 21.9 mph N/A   Clear
11:55 AM 43.3 °F 35.8 °F 24.4 °F 47% 29.97 in 10.0 mi South 16.1 mph - N/A   Clear
12:15 PM 44.8 °F 37.7 °F 24.4 °F 45% 29.96 in 10.0 mi SSW 16.1 mph 19.6 mph N/A   Clear
12:35 PM 46.0 °F 39.3 °F 24.4 °F 43% 29.97 in 10.0 mi SSW 16.1 mph - N/A   Clear
12:55 PM 48.6 °F - 24.8 °F 39% 29.97 in 10.0 mi SSW 11.5 mph 18.4 mph N/A   Clear
1:15 PM 49.5 °F - 24.4 °F 38% 29.96 in 10.0 mi SSW 12.7 mph - N/A   Clear
1:35 PM 51.1 °F - 24.1 °F 35% 29.94 in 10.0 mi South 16.1 mph - N/A   Clear
1:55 PM 52.5 °F - 24.4 °F 34% 29.94 in 10.0 mi South 16.1 mph - N/A   Clear
2:15 PM 53.2 °F - 24.6 °F 33% 29.94 in 10.0 mi South 13.8 mph - N/A   Clear
2:35 PM 54.7 °F - 23.9 °F 30% 29.94 in 10.0 mi South 15.0 mph - N/A   Clear
2:55 PM 54.7 °F - 23.5 °F 30% 29.94 in 10.0 mi South 11.5 mph - N/A   Clear
3:15 PM 54.3 °F - 23.9 °F 31% 29.94 in 10.0 mi South 10.4 mph - N/A   Clear
3:35 PM 55.9 °F - 23.5 °F 29% 29.95 in 10.0 mi South 10.4 mph - N/A   Clear
3:55 PM 55.4 °F - 23.9 °F 30% 29.95 in 10.0 mi SSW 10.4 mph - N/A   Clear
4:15 PM 55.2 °F - 23.7 °F 30% 29.95 in 10.0 mi South 12.7 mph - N/A   Clear
4:35 PM 54.0 °F - 24.8 °F 32% 29.96 in 10.0 mi South 10.4 mph - N/A   Clear
4:55 PM 53.6 °F - 25.0 °F 33% 29.96 in 10.0 mi South 10.4 mph - N/A   Clear
5:15 PM 53.4 °F - 25.3 °F 34% 29.96 in 10.0 mi South 9.2 mph - N/A   Clear
5:35 PM 51.8 °F - 25.9 °F 37% 29.97 in 10.0 mi South 9.2 mph - N/A   Clear
5:55 PM 49.3 °F - 26.8 °F 42% 29.97 in 10.0 mi South 8.1 mph - N/A   Clear
7:35 PM 39.6 °F 37.4 °F 26.6 °F 60% 30.01 in 10.0 mi South 3.5 mph - N/A   Clear
7:55 PM 39.7 °F 36.5 °F 26.2 °F 59% 30.02 in 10.0 mi South 4.6 mph - N/A   Clear
8:15 PM 38.7 °F 34.3 °F 26.4 °F 61% 30.03 in 10.0 mi South 5.8 mph - N/A   Clear
8:35 PM 37.8 °F 31.8 °F 26.8 °F 65% 30.03 in 10.0 mi SSW 8.1 mph - N/A   Clear
8:55 PM 38.5 °F 34.1 °F 27.1 °F 64% 30.04 in 10.0 mi WSW 5.8 mph - N/A   Clear
9:15 PM 37.4 °F 32.1 °F 26.6 °F 65% 30.05 in 10.0 mi WSW 6.9 mph - N/A   Clear
9:35 PM 37.0 °F 32.4 °F 26.4 °F 65% 30.05 in 10.0 mi West 5.8 mph - N/A   Clear
9:55 PM 38.3 °F 33.9 °F 26.6 °F 63% 30.06 in 10.0 mi WSW 5.8 mph - N/A   Clear
10:15 PM 37.0 °F 31.6 °F 26.4 °F 65% 30.07 in 10.0 mi West 6.9 mph - N/A   Clear
10:35 PM 36.7 °F 31.2 °F 26.2 °F 66% 30.07 in 10.0 mi West 6.9 mph - N/A   Clear
10:55 PM 35.8 °F 30.1 °F 25.7 °F 67% 30.08 in 10.0 mi West 6.9 mph - N/A   Clear
11:15 PM 35.6 °F 29.9 °F 26.2 °F 69% 30.08 in 10.0 mi West 6.9 mph - N/A   Clear
11:35 PM 35.6 °F 29.9 °F 26.1 °F 68% 30.08 in 10.0 mi West 6.9 mph - N/A   Clear
11:55 PM 34.2 °F 30.0 °F 25.7 °F 71% 30.08 in 10.0 mi WNW 4.6 mph - N/A   Clear